sensor_id;sensor_type;location;lat;lon;timestamp;P1;durP1;ratioP1;P2;durP2;ratioP2
16624;SDS011;8426;48.496;9.098;2023-04-24T00:00:47;1.63;;;0.57;;
16624;SDS011;8426;48.496;9.098;2023-04-24T00:05:53;1.38;;;0.38;;
16624;SDS011;8426;48.496;9.098;2023-04-24T00:11:00;0.32;;;0.30;;
16624;SDS011;8426;48.496;9.098;2023-04-24T00:16:04;2.13;;;0.68;;
16624;SDS011;8426;48.496;9.098;2023-04-24T00:21:11;0.88;;;0.45;;
16624;SDS011;8426;48.496;9.098;2023-04-24T00:26:14;0.55;;;0.40;;
16624;SDS011;8426;48.496;9.098;2023-04-24T00:31:18;1.13;;;0.40;;
16624;SDS011;8426;48.496;9.098;2023-04-24T00:36:23;1.48;;;0.38;;
16624;SDS011;8426;48.496;9.098;2023-04-24T00:41:27;0.52;;;0.30;;
16624;SDS011;8426;48.496;9.098;2023-04-24T00:46:32;0.40;;;0.40;;
16624;SDS011;8426;48.496;9.098;2023-04-24T00:51:36;0.55;;;0.40;;
16624;SDS011;8426;48.496;9.098;2023-04-24T00:56:42;1.15;;;0.30;;
16624;SDS011;8426;48.496;9.098;2023-04-24T01:01:46;0.25;;;0.22;;
16624;SDS011;8426;48.496;9.098;2023-04-24T01:06:51;0.80;;;0.30;;
16624;SDS011;8426;48.496;9.098;2023-04-24T01:11:55;1.40;;;0.50;;
16624;SDS011;8426;48.496;9.098;2023-04-24T01:17:00;0.80;;;0.35;;
16624;SDS011;8426;48.496;9.098;2023-04-24T01:22:11;0.77;;;0.43;;
16624;SDS011;8426;48.496;9.098;2023-04-24T01:27:15;2.35;;;0.50;;
16624;SDS011;8426;48.496;9.098;2023-04-24T01:32:19;1.13;;;0.30;;
16624;SDS011;8426;48.496;9.098;2023-04-24T01:37:24;0.73;;;0.40;;
16624;SDS011;8426;48.496;9.098;2023-04-24T01:42:29;0.50;;;0.40;;
16624;SDS011;8426;48.496;9.098;2023-04-24T01:47:33;0.68;;;0.40;;
16624;SDS011;8426;48.496;9.098;2023-04-24T01:52:38;0.50;;;0.45;;
16624;SDS011;8426;48.496;9.098;2023-04-24T01:57:48;1.33;;;0.50;;
16624;SDS011;8426;48.496;9.098;2023-04-24T02:02:53;1.10;;;0.50;;
16624;SDS011;8426;48.496;9.098;2023-04-24T02:08:00;2.20;;;0.50;;
16624;SDS011;8426;48.496;9.098;2023-04-24T02:13:06;0.82;;;0.55;;
16624;SDS011;8426;48.496;9.098;2023-04-24T02:18:09;1.13;;;0.50;;
16624;SDS011;8426;48.496;9.098;2023-04-24T02:23:15;0.47;;;0.40;;
16624;SDS011;8426;48.496;9.098;2023-04-24T02:28:19;1.48;;;0.50;;
16624;SDS011;8426;48.496;9.098;2023-04-24T02:33:23;1.15;;;0.40;;
16624;SDS011;8426;48.496;9.098;2023-04-24T02:38:27;2.72;;;0.57;;
16624;SDS011;8426;48.496;9.098;2023-04-24T02:43:31;1.13;;;0.40;;
16624;SDS011;8426;48.496;9.098;2023-04-24T02:48:35;1.15;;;0.47;;
16624;SDS011;8426;48.496;9.098;2023-04-24T02:53:39;1.15;;;0.40;;
16624;SDS011;8426;48.496;9.098;2023-04-24T02:58:43;1.00;;;0.45;;
16624;SDS011;8426;48.496;9.098;2023-04-24T03:03:46;2.40;;;0.65;;
16624;SDS011;8426;48.496;9.098;2023-04-24T03:08:52;2.58;;;0.60;;
16624;SDS011;8426;48.496;9.098;2023-04-24T03:13:56;0.60;;;0.45;;
16624;SDS011;8426;48.496;9.098;2023-04-24T03:18:59;1.10;;;0.75;;
16624;SDS011;8426;48.496;9.098;2023-04-24T03:24:05;1.10;;;0.57;;
16624;SDS011;8426;48.496;9.098;2023-04-24T03:29:08;3.20;;;0.70;;
16624;SDS011;8426;48.496;9.098;2023-04-24T03:34:13;0.50;;;0.40;;
16624;SDS011;8426;48.496;9.098;2023-04-24T03:39:20;0.55;;;0.35;;
16624;SDS011;8426;48.496;9.098;2023-04-24T03:44:25;2.50;;;0.50;;
16624;SDS011;8426;48.496;9.098;2023-04-24T03:49:28;0.93;;;0.40;;
16624;SDS011;8426;48.496;9.098;2023-04-24T03:54:33;3.30;;;0.65;;
16624;SDS011;8426;48.496;9.098;2023-04-24T03:59:42;4.38;;;0.50;;
16624;SDS011;8426;48.496;9.098;2023-04-24T04:04:46;1.63;;;0.40;;
16624;SDS011;8426;48.496;9.098;2023-04-24T04:09:52;1.17;;;0.50;;
16624;SDS011;8426;48.496;9.098;2023-04-24T04:14:56;3.22;;;0.60;;
16624;SDS011;8426;48.496;9.098;2023-04-24T04:20:00;0.85;;;0.40;;
16624;SDS011;8426;48.496;9.098;2023-04-24T04:25:09;1.83;;;0.50;;
16624;SDS011;8426;48.496;9.098;2023-04-24T04:30:13;1.48;;;0.40;;
16624;SDS011;8426;48.496;9.098;2023-04-24T04:35:17;1.33;;;0.57;;
16624;SDS011;8426;48.496;9.098;2023-04-24T04:40:25;3.38;;;0.55;;
16624;SDS011;8426;48.496;9.098;2023-04-24T04:45:29;1.67;;;0.60;;
16624;SDS011;8426;48.496;9.098;2023-04-24T04:50:34;2.05;;;0.50;;
16624;SDS011;8426;48.496;9.098;2023-04-24T04:55:40;1.45;;;0.68;;
16624;SDS011;8426;48.496;9.098;2023-04-24T05:00:47;1.92;;;0.70;;
16624;SDS011;8426;48.496;9.098;2023-04-24T05:05:50;5.82;;;0.80;;
16624;SDS011;8426;48.496;9.098;2023-04-24T05:10:55;0.98;;;0.75;;
16624;SDS011;8426;48.496;9.098;2023-04-24T05:15:59;10.20;;;1.20;;
16624;SDS011;8426;48.496;9.098;2023-04-24T05:21:27;1.92;;;1.13;;
16624;SDS011;8426;48.496;9.098;2023-04-24T05:32:25;2.78;;;0.60;;
16624;SDS011;8426;48.496;9.098;2023-04-24T05:37:34;1.48;;;0.90;;
16624;SDS011;8426;48.496;9.098;2023-04-24T05:42:39;2.33;;;0.70;;
16624;SDS011;8426;48.496;9.098;2023-04-24T05:47:44;4.50;;;0.90;;
16624;SDS011;8426;48.496;9.098;2023-04-24T05:52:48;1.80;;;0.90;;
16624;SDS011;8426;48.496;9.098;2023-04-24T05:57:55;2.22;;;1.17;;
16624;SDS011;8426;48.496;9.098;2023-04-24T06:03:02;3.30;;;1.15;;
16624;SDS011;8426;48.496;9.098;2023-04-24T06:08:08;1.77;;;0.80;;
16624;SDS011;8426;48.496;9.098;2023-04-24T06:13:12;1.48;;;1.02;;
16624;SDS011;8426;48.496;9.098;2023-04-24T06:18:17;8.07;;;1.02;;
16624;SDS011;8426;48.496;9.098;2023-04-24T06:23:23;1.92;;;1.00;;
16624;SDS011;8426;48.496;9.098;2023-04-24T06:28:26;1.63;;;0.73;;
16624;SDS011;8426;48.496;9.098;2023-04-24T06:33:35;1.55;;;0.90;;
16624;SDS011;8426;48.496;9.098;2023-04-24T06:38:39;0.70;;;0.55;;
16624;SDS011;8426;48.496;9.098;2023-04-24T06:43:42;1.73;;;0.52;;
16624;SDS011;8426;48.496;9.098;2023-04-24T06:48:47;2.45;;;0.40;;
16624;SDS011;8426;48.496;9.098;2023-04-24T06:53:53;1.55;;;0.80;;
16624;SDS011;8426;48.496;9.098;2023-04-24T06:58:58;0.85;;;0.65;;
16624;SDS011;8426;48.496;9.098;2023-04-24T07:04:06;0.88;;;0.50;;
16624;SDS011;8426;48.496;9.098;2023-04-24T07:09:11;0.95;;;0.40;;
16624;SDS011;8426;48.496;9.098;2023-04-24T07:14:23;0.70;;;0.55;;
16624;SDS011;8426;48.496;9.098;2023-04-24T07:19:28;2.85;;;0.93;;
16624;SDS011;8426;48.496;9.098;2023-04-24T07:24:33;2.40;;;0.90;;
16624;SDS011;8426;48.496;9.098;2023-04-24T07:29:39;1.27;;;0.50;;
16624;SDS011;8426;48.496;9.098;2023-04-24T07:34:51;1.52;;;0.60;;
16624;SDS011;8426;48.496;9.098;2023-04-24T07:39:55;2.17;;;0.60;;
16624;SDS011;8426;48.496;9.098;2023-04-24T07:44:58;2.50;;;0.90;;
16624;SDS011;8426;48.496;9.098;2023-04-24T07:50:06;1.20;;;0.70;;
16624;SDS011;8426;48.496;9.098;2023-04-24T07:55:10;1.05;;;0.60;;
16624;SDS011;8426;48.496;9.098;2023-04-24T08:00:22;1.70;;;0.70;;
16624;SDS011;8426;48.496;9.098;2023-04-24T08:05:31;0.82;;;0.50;;
16624;SDS011;8426;48.496;9.098;2023-04-24T08:10:35;1.55;;;0.60;;
16624;SDS011;8426;48.496;9.098;2023-04-24T08:15:39;1.27;;;0.60;;
16624;SDS011;8426;48.496;9.098;2023-04-24T08:20:44;4.93;;;0.73;;
16624;SDS011;8426;48.496;9.098;2023-04-24T08:25:48;1.30;;;0.60;;
16624;SDS011;8426;48.496;9.098;2023-04-24T08:30:51;2.78;;;0.75;;
16624;SDS011;8426;48.496;9.098;2023-04-24T08:36:01;1.45;;;0.80;;
16624;SDS011;8426;48.496;9.098;2023-04-24T08:41:14;0.77;;;0.50;;
16624;SDS011;8426;48.496;9.098;2023-04-24T08:46:23;1.10;;;0.73;;
16624;SDS011;8426;48.496;9.098;2023-04-24T08:51:31;1.65;;;0.80;;
16624;SDS011;8426;48.496;9.098;2023-04-24T08:56:44;3.20;;;0.73;;
16624;SDS011;8426;48.496;9.098;2023-04-24T09:01:52;2.03;;;0.80;;
16624;SDS011;8426;48.496;9.098;2023-04-24T09:07:00;3.47;;;1.08;;
16624;SDS011;8426;48.496;9.098;2023-04-24T09:12:04;0.90;;;0.60;;
16624;SDS011;8426;48.496;9.098;2023-04-24T09:17:12;1.42;;;0.70;;
16624;SDS011;8426;48.496;9.098;2023-04-24T09:22:19;0.90;;;0.60;;
16624;SDS011;8426;48.496;9.098;2023-04-24T09:27:32;2.35;;;0.52;;
16624;SDS011;8426;48.496;9.098;2023-04-24T09:32:44;3.33;;;0.60;;
16624;SDS011;8426;48.496;9.098;2023-04-24T09:37:57;3.13;;;0.60;;
16624;SDS011;8426;48.496;9.098;2023-04-24T09:43:02;2.90;;;0.70;;
16624;SDS011;8426;48.496;9.098;2023-04-24T09:48:07;1.98;;;0.65;;
16624;SDS011;8426;48.496;9.098;2023-04-24T09:53:13;1.88;;;0.80;;
16624;SDS011;8426;48.496;9.098;2023-04-24T09:58:18;2.58;;;0.88;;
16624;SDS011;8426;48.496;9.098;2023-04-24T10:03:29;1.70;;;0.70;;
16624;SDS011;8426;48.496;9.098;2023-04-24T10:08:39;1.52;;;0.60;;
16624;SDS011;8426;48.496;9.098;2023-04-24T10:13:44;1.65;;;0.60;;
16624;SDS011;8426;48.496;9.098;2023-04-24T10:18:59;0.93;;;0.70;;
16624;SDS011;8426;48.496;9.098;2023-04-24T10:24:13;2.08;;;0.90;;
16624;SDS011;8426;48.496;9.098;2023-04-24T10:29:17;1.40;;;0.50;;
16624;SDS011;8426;48.496;9.098;2023-04-24T10:34:22;1.35;;;0.55;;
16624;SDS011;8426;48.496;9.098;2023-04-24T10:39:29;0.47;;;0.43;;
16624;SDS011;8426;48.496;9.098;2023-04-24T10:44:39;1.88;;;0.70;;
16624;SDS011;8426;48.496;9.098;2023-04-24T10:49:50;2.33;;;0.43;;
16624;SDS011;8426;48.496;9.098;2023-04-24T10:54:55;2.50;;;0.45;;
16624;SDS011;8426;48.496;9.098;2023-04-24T11:00:15;0.70;;;0.43;;
16624;SDS011;8426;48.496;9.098;2023-04-24T11:05:23;0.82;;;0.50;;
16624;SDS011;8426;48.496;9.098;2023-04-24T11:10:59;2.35;;;0.55;;
16624;SDS011;8426;48.496;9.098;2023-04-24T11:16:21;6.22;;;1.58;;
16624;SDS011;8426;48.496;9.098;2023-04-24T11:21:41;0.88;;;0.50;;
16624;SDS011;8426;48.496;9.098;2023-04-24T11:26:50;1.75;;;0.60;;
16624;SDS011;8426;48.496;9.098;2023-04-24T11:31:55;1.50;;;0.50;;
16624;SDS011;8426;48.496;9.098;2023-04-24T11:37:00;0.77;;;0.50;;
16624;SDS011;8426;48.496;9.098;2023-04-24T11:42:06;0.70;;;0.52;;
16624;SDS011;8426;48.496;9.098;2023-04-24T11:47:27;1.30;;;0.70;;
16624;SDS011;8426;48.496;9.098;2023-04-24T11:52:56;1.92;;;0.50;;
16624;SDS011;8426;48.496;9.098;2023-04-24T11:58:09;0.82;;;0.40;;
16624;SDS011;8426;48.496;9.098;2023-04-24T12:03:28;0.80;;;0.43;;
16624;SDS011;8426;48.496;9.098;2023-04-24T12:08:35;1.17;;;0.70;;
16624;SDS011;8426;48.496;9.098;2023-04-24T12:13:40;0.90;;;0.50;;
16624;SDS011;8426;48.496;9.098;2023-04-24T12:18:47;1.02;;;0.50;;
16624;SDS011;8426;48.496;9.098;2023-04-24T12:23:50;1.08;;;0.50;;
16624;SDS011;8426;48.496;9.098;2023-04-24T12:29:02;1.17;;;0.47;;
16624;SDS011;8426;48.496;9.098;2023-04-24T12:34:20;1.10;;;0.40;;
16624;SDS011;8426;48.496;9.098;2023-04-24T12:39:27;1.50;;;0.43;;
16624;SDS011;8426;48.496;9.098;2023-04-24T12:44:39;2.47;;;0.60;;
16624;SDS011;8426;48.496;9.098;2023-04-24T12:50:07;0.65;;;0.50;;
16624;SDS011;8426;48.496;9.098;2023-04-24T12:55:11;3.50;;;0.80;;
16624;SDS011;8426;48.496;9.098;2023-04-24T13:00:16;2.50;;;0.60;;
16624;SDS011;8426;48.496;9.098;2023-04-24T13:05:22;1.42;;;0.70;;
16624;SDS011;8426;48.496;9.098;2023-04-24T13:10:31;2.28;;;0.73;;
16624;SDS011;8426;48.496;9.098;2023-04-24T13:15:37;3.65;;;0.80;;
16624;SDS011;8426;48.496;9.098;2023-04-24T13:20:43;5.10;;;0.70;;
16624;SDS011;8426;48.496;9.098;2023-04-24T13:25:54;2.13;;;0.60;;
16624;SDS011;8426;48.496;9.098;2023-04-24T13:31:02;2.13;;;0.70;;
16624;SDS011;8426;48.496;9.098;2023-04-24T13:36:05;0.93;;;0.70;;
16624;SDS011;8426;48.496;9.098;2023-04-24T13:41:09;5.80;;;0.70;;
16624;SDS011;8426;48.496;9.098;2023-04-24T13:46:17;0.93;;;0.60;;
16624;SDS011;8426;48.496;9.098;2023-04-24T13:51:20;1.05;;;0.70;;
16624;SDS011;8426;48.496;9.098;2023-04-24T13:56:26;3.88;;;0.70;;
16624;SDS011;8426;48.496;9.098;2023-04-24T14:01:31;3.72;;;0.70;;
16624;SDS011;8426;48.496;9.098;2023-04-24T14:06:35;2.30;;;0.50;;
16624;SDS011;8426;48.496;9.098;2023-04-24T14:11:38;3.13;;;0.80;;
16624;SDS011;8426;48.496;9.098;2023-04-24T14:16:43;1.10;;;0.73;;
16624;SDS011;8426;48.496;9.098;2023-04-24T14:21:46;1.10;;;0.70;;
16624;SDS011;8426;48.496;9.098;2023-04-24T14:26:50;1.27;;;0.70;;
16624;SDS011;8426;48.496;9.098;2023-04-24T14:31:55;1.35;;;0.77;;
16624;SDS011;8426;48.496;9.098;2023-04-24T14:37:01;1.48;;;0.70;;
16624;SDS011;8426;48.496;9.098;2023-04-24T14:42:04;1.08;;;0.77;;
16624;SDS011;8426;48.496;9.098;2023-04-24T14:47:11;2.15;;;0.75;;
16624;SDS011;8426;48.496;9.098;2023-04-24T14:52:14;4.35;;;1.08;;
16624;SDS011;8426;48.496;9.098;2023-04-24T14:57:17;1.25;;;0.63;;
16624;SDS011;8426;48.496;9.098;2023-04-24T15:02:24;2.00;;;1.10;;
16624;SDS011;8426;48.496;9.098;2023-04-24T15:07:28;1.33;;;0.70;;
16624;SDS011;8426;48.496;9.098;2023-04-24T15:12:32;2.28;;;0.70;;
16624;SDS011;8426;48.496;9.098;2023-04-24T15:17:37;0.85;;;0.68;;
16624;SDS011;8426;48.496;9.098;2023-04-24T15:22:47;1.85;;;0.70;;
16624;SDS011;8426;48.496;9.098;2023-04-24T15:27:51;2.35;;;0.75;;
16624;SDS011;8426;48.496;9.098;2023-04-24T15:32:57;1.13;;;0.68;;
16624;SDS011;8426;48.496;9.098;2023-04-24T15:38:02;3.92;;;0.90;;
16624;SDS011;8426;48.496;9.098;2023-04-24T15:43:07;0.90;;;0.70;;
16624;SDS011;8426;48.496;9.098;2023-04-24T15:48:13;1.42;;;0.60;;
16624;SDS011;8426;48.496;9.098;2023-04-24T15:53:16;1.85;;;0.90;;
16624;SDS011;8426;48.496;9.098;2023-04-24T15:58:22;0.88;;;0.60;;
16624;SDS011;8426;48.496;9.098;2023-04-24T16:03:27;3.08;;;0.75;;
16624;SDS011;8426;48.496;9.098;2023-04-24T16:08:33;1.58;;;0.60;;
16624;SDS011;8426;48.496;9.098;2023-04-24T16:13:39;1.33;;;0.70;;
16624;SDS011;8426;48.496;9.098;2023-04-24T16:18:44;0.60;;;0.60;;
16624;SDS011;8426;48.496;9.098;2023-04-24T16:23:48;4.22;;;0.93;;
16624;SDS011;8426;48.496;9.098;2023-04-24T16:28:55;2.90;;;0.82;;
16624;SDS011;8426;48.496;9.098;2023-04-24T16:34:00;1.00;;;0.85;;
16624;SDS011;8426;48.496;9.098;2023-04-24T16:39:04;1.45;;;0.90;;
16624;SDS011;8426;48.496;9.098;2023-04-24T16:44:31;1.20;;;0.60;;
16624;SDS011;8426;48.496;9.098;2023-04-24T16:50:01;2.33;;;0.70;;
16624;SDS011;8426;48.496;9.098;2023-04-24T16:55:11;0.82;;;0.68;;
16624;SDS011;8426;48.496;9.098;2023-04-24T17:00:16;1.40;;;0.60;;
16624;SDS011;8426;48.496;9.098;2023-04-24T17:05:22;1.40;;;0.80;;
16624;SDS011;8426;48.496;9.098;2023-04-24T17:10:32;0.60;;;0.60;;
16624;SDS011;8426;48.496;9.098;2023-04-24T17:15:44;2.72;;;1.00;;
16624;SDS011;8426;48.496;9.098;2023-04-24T17:20:57;3.22;;;0.90;;
16624;SDS011;8426;48.496;9.098;2023-04-24T17:26:02;4.20;;;0.90;;
16624;SDS011;8426;48.496;9.098;2023-04-24T17:31:08;3.15;;;0.75;;
16624;SDS011;8426;48.496;9.098;2023-04-24T17:36:13;1.15;;;0.63;;
16624;SDS011;8426;48.496;9.098;2023-04-24T17:41:16;1.80;;;0.88;;
16624;SDS011;8426;48.496;9.098;2023-04-24T17:46:22;3.00;;;1.10;;
16624;SDS011;8426;48.496;9.098;2023-04-24T17:51:28;2.10;;;0.90;;
16624;SDS011;8426;48.496;9.098;2023-04-24T17:56:32;1.08;;;0.68;;
16624;SDS011;8426;48.496;9.098;2023-04-24T18:01:38;1.13;;;0.90;;
16624;SDS011;8426;48.496;9.098;2023-04-24T18:06:42;5.43;;;0.80;;
16624;SDS011;8426;48.496;9.098;2023-04-24T18:11:48;1.70;;;0.93;;
16624;SDS011;8426;48.496;9.098;2023-04-24T18:16:55;3.33;;;0.80;;
16624;SDS011;8426;48.496;9.098;2023-04-24T18:22:00;1.92;;;1.10;;
16624;SDS011;8426;48.496;9.098;2023-04-24T18:27:05;1.60;;;0.80;;
16624;SDS011;8426;48.496;9.098;2023-04-24T18:32:08;1.92;;;1.00;;
16624;SDS011;8426;48.496;9.098;2023-04-24T18:37:16;1.05;;;0.80;;
16624;SDS011;8426;48.496;9.098;2023-04-24T18:42:19;4.88;;;1.13;;
16624;SDS011;8426;48.496;9.098;2023-04-24T18:47:47;1.35;;;1.10;;
16624;SDS011;8426;48.496;9.098;2023-04-24T18:52:53;1.40;;;0.77;;
16624;SDS011;8426;48.496;9.098;2023-04-24T18:57:57;2.35;;;0.98;;
16624;SDS011;8426;48.496;9.098;2023-04-24T19:03:01;1.08;;;0.90;;
16624;SDS011;8426;48.496;9.098;2023-04-24T19:08:07;1.95;;;0.90;;
16624;SDS011;8426;48.496;9.098;2023-04-24T19:13:10;1.65;;;0.90;;
16624;SDS011;8426;48.496;9.098;2023-04-24T19:18:16;5.13;;;1.10;;
16624;SDS011;8426;48.496;9.098;2023-04-24T19:23:23;1.80;;;1.13;;
16624;SDS011;8426;48.496;9.098;2023-04-24T19:28:32;4.60;;;1.02;;
16624;SDS011;8426;48.496;9.098;2023-04-24T19:33:39;1.77;;;1.10;;
16624;SDS011;8426;48.496;9.098;2023-04-24T19:38:50;1.15;;;0.80;;
16624;SDS011;8426;48.496;9.098;2023-04-24T19:43:53;3.22;;;1.30;;
16624;SDS011;8426;48.496;9.098;2023-04-24T19:48:56;2.92;;;0.93;;
16624;SDS011;8426;48.496;9.098;2023-04-24T19:54:05;1.83;;;0.98;;
16624;SDS011;8426;48.496;9.098;2023-04-24T19:59:09;1.95;;;1.20;;
16624;SDS011;8426;48.496;9.098;2023-04-24T20:04:13;1.70;;;1.10;;
16624;SDS011;8426;48.496;9.098;2023-04-24T20:09:18;2.00;;;1.10;;
16624;SDS011;8426;48.496;9.098;2023-04-24T20:14:21;1.35;;;1.08;;
16624;SDS011;8426;48.496;9.098;2023-04-24T20:19:28;1.38;;;1.15;;
16624;SDS011;8426;48.496;9.098;2023-04-24T20:24:35;1.73;;;1.00;;
16624;SDS011;8426;48.496;9.098;2023-04-24T20:29:40;1.95;;;1.02;;
16624;SDS011;8426;48.496;9.098;2023-04-24T20:34:43;2.55;;;1.10;;
16624;SDS011;8426;48.496;9.098;2023-04-24T20:39:49;3.13;;;1.40;;
16624;SDS011;8426;48.496;9.098;2023-04-24T20:44:53;2.13;;;1.10;;
16624;SDS011;8426;48.496;9.098;2023-04-24T20:49:56;1.55;;;0.90;;
16624;SDS011;8426;48.496;9.098;2023-04-24T20:55:05;1.92;;;1.00;;
16624;SDS011;8426;48.496;9.098;2023-04-24T21:00:10;3.70;;;1.52;;
16624;SDS011;8426;48.496;9.098;2023-04-24T21:05:22;3.58;;;1.50;;
16624;SDS011;8426;48.496;9.098;2023-04-24T21:10:30;4.55;;;1.63;;
16624;SDS011;8426;48.496;9.098;2023-04-24T21:15:51;3.03;;;1.48;;
16624;SDS011;8426;48.496;9.098;2023-04-24T21:21:03;2.88;;;1.60;;
16624;SDS011;8426;48.496;9.098;2023-04-24T21:26:10;2.47;;;1.55;;
16624;SDS011;8426;48.496;9.098;2023-04-24T21:31:16;3.33;;;1.73;;
16624;SDS011;8426;48.496;9.098;2023-04-24T21:36:27;2.08;;;1.38;;
16624;SDS011;8426;48.496;9.098;2023-04-24T21:41:35;3.13;;;1.63;;
16624;SDS011;8426;48.496;9.098;2023-04-24T21:46:39;3.50;;;1.38;;
16624;SDS011;8426;48.496;9.098;2023-04-24T21:51:43;3.40;;;1.30;;
16624;SDS011;8426;48.496;9.098;2023-04-24T21:56:48;8.07;;;1.88;;
16624;SDS011;8426;48.496;9.098;2023-04-24T22:01:58;2.88;;;1.70;;
16624;SDS011;8426;48.496;9.098;2023-04-24T22:07:10;2.72;;;1.73;;
16624;SDS011;8426;48.496;9.098;2023-04-24T22:12:25;3.70;;;2.03;;
16624;SDS011;8426;48.496;9.098;2023-04-24T22:17:29;2.72;;;1.88;;
16624;SDS011;8426;48.496;9.098;2023-04-24T22:22:34;4.43;;;1.90;;
16624;SDS011;8426;48.496;9.098;2023-04-24T22:27:39;2.38;;;1.40;;
16624;SDS011;8426;48.496;9.098;2023-04-24T22:32:43;5.63;;;1.77;;
16624;SDS011;8426;48.496;9.098;2023-04-24T22:37:46;4.03;;;2.17;;
16624;SDS011;8426;48.496;9.098;2023-04-24T22:43:10;5.22;;;2.47;;
16624;SDS011;8426;48.496;9.098;2023-04-24T22:48:13;4.97;;;2.20;;
16624;SDS011;8426;48.496;9.098;2023-04-24T22:53:17;5.10;;;2.00;;
16624;SDS011;8426;48.496;9.098;2023-04-24T22:58:24;9.07;;;2.00;;
16624;SDS011;8426;48.496;9.098;2023-04-24T23:03:29;5.88;;;1.80;;
16624;SDS011;8426;48.496;9.098;2023-04-24T23:08:36;4.10;;;2.03;;
16624;SDS011;8426;48.496;9.098;2023-04-24T23:13:49;3.17;;;1.85;;
16624;SDS011;8426;48.496;9.098;2023-04-24T23:18:52;3.83;;;1.88;;
16624;SDS011;8426;48.496;9.098;2023-04-24T23:24:01;2.83;;;1.80;;
16624;SDS011;8426;48.496;9.098;2023-04-24T23:29:15;2.80;;;1.77;;
16624;SDS011;8426;48.496;9.098;2023-04-24T23:34:19;6.57;;;1.85;;
16624;SDS011;8426;48.496;9.098;2023-04-24T23:39:30;4.88;;;1.88;;
16624;SDS011;8426;48.496;9.098;2023-04-24T23:44:43;9.95;;;2.00;;
16624;SDS011;8426;48.496;9.098;2023-04-24T23:49:50;3.38;;;1.77;;
16624;SDS011;8426;48.496;9.098;2023-04-24T23:54:54;3.28;;;1.45;;
